Time;durP1;ratioP1;P1;durP2;ratioP2;P2;SDS_P1;SDS_P2;PMS_P1;PMS_P2;Temp;Humidity;BMP_temperature;BMP_pressure;BME280_temperature;BME280_humidity;BME280_pressure;Samples;Min_cycle;Max_cycle;Signal;HPM_P1;HPM_P2
2022/10/13 00:00:48;;;;;;;9.93;8.95;;;23.40;99.90;;;;;;6233980;27;88352;-66
2022/10/13 00:03:50;;;;;;;10.05;9.02;;;23.40;99.90;;;;;;6246747;27;89065;-66
2022/10/13 00:06:52;;;;;;;9.45;8.55;;;23.40;99.90;;;;;;6255143;27;89183;-66
2022/10/13 00:09:55;;;;;;;10.57;9.50;;;23.30;99.90;;;;;;6254585;27;91720;-67
2022/10/13 00:12:57;;;;;;;9.75;8.85;;;23.40;99.90;;;;;;6235992;28;89091;-66
2022/10/13 00:16:03;;;;;;;9.70;8.77;;;23.30;99.90;;;;;;6244839;27;89091;-66
2022/10/13 00:19:05;;;;;;;9.63;8.73;;;23.30;99.90;;;;;;6247788;27;89120;-67
2022/10/13 00:22:07;;;;;;;9.48;8.57;;;23.30;99.90;;;;;;6254873;27;89433;-67
2022/10/13 00:25:10;;;;;;;9.35;8.45;;;23.40;99.90;;;;;;6233345;27;87998;-67
2022/10/13 00:28:13;;;;;;;9.25;8.35;;;23.40;99.90;;;;;;6255438;27;89104;-66
2022/10/13 00:31:16;;;;;;;9.50;8.60;;;23.30;99.90;;;;;;6255365;27;88344;-66
2022/10/13 00:34:18;;;;;;;9.18;8.27;;;23.30;99.90;;;;;;6238694;27;89150;-67
2022/10/13 00:37:20;;;;;;;9.30;8.40;;;23.30;99.90;;;;;;6242333;27;89038;-66
2022/10/13 00:40:24;;;;;;;9.73;8.73;;;23.30;99.90;;;;;;6243157;27;89933;-67
2022/10/13 00:43:28;;;;;;;9.10;8.20;;;23.30;99.90;;;;;;6253008;28;89217;-66
2022/10/13 00:46:32;;;;;;;9.50;8.60;;;23.30;99.90;;;;;;6255096;27;89073;-67
2022/10/13 00:49:34;;;;;;;9.15;8.25;;;23.30;99.90;;;;;;6246905;27;89404;-66
2022/10/13 00:52:39;;;;;;;9.40;8.50;;;23.30;99.90;;;;;;6255418;28;89184;-67
2022/10/13 00:55:45;;;;;;;9.63;8.65;;;23.30;99.90;;;;;;6252941;27;89050;-67
2022/10/13 00:58:48;;;;;;;9.10;8.20;;;23.30;99.90;;;;;;6254597;27;89113;-66
2022/10/13 01:01:51;;;;;;;8.90;8.10;;;23.30;99.90;;;;;;6254375;27;88273;-66
2022/10/13 01:04:53;;;;;;;9.50;8.63;;;23.30;99.90;;;;;;6253793;27;89029;-67
2022/10/13 01:07:56;;;;;;;9.73;8.77;;;23.30;99.90;;;;;;6250356;27;89289;-67
2022/10/13 01:11:21;;;;;;;8.77;7.97;;;23.30;99.90;;;;;;6254080;27;90440;-67
2022/10/13 01:14:30;;;;;;;8.93;8.13;;;23.30;99.90;;;;;;6248408;27;89614;-66
2022/10/13 01:17:38;;;;;;;9.52;8.63;;;23.30;99.90;;;;;;6242301;27;89144;-66
2022/10/13 01:21:06;;;;;;;8.88;8.07;;;23.30;99.90;;;;;;6256313;27;89026;-67
2022/10/13 01:24:33;;;;;;;8.80;8.00;;;23.30;99.90;;;;;;6242392;27;89153;-67
2022/10/13 01:28:16;;;;;;;10.20;9.10;;;23.30;99.90;;;;;;6257487;27;89049;-67
2022/10/13 01:31:25;;;;;;;8.65;7.85;;;23.30;99.90;;;;;;6252610;27;87997;-67
2022/10/13 01:34:33;;;;;;;8.65;7.75;;;23.20;99.90;;;;;;6257107;27;88401;-66
2022/10/13 01:37:43;;;;;;;9.50;8.50;;;23.30;99.90;;;;;;6257615;27;89099;-67
2022/10/13 01:40:51;;;;;;;9.57;8.45;;;23.30;99.90;;;;;;6242981;27;89912;-67
2022/10/13 01:44:00;;;;;;;9.15;8.07;;;23.30;99.90;;;;;;6233278;27;90101;-67
2022/10/13 01:47:06;;;;;;;9.38;8.30;;;23.30;99.90;;;;;;6240248;27;89148;-67
2022/10/13 01:50:09;;;;;;;9.30;8.40;;;23.30;99.90;;;;;;6253453;27;89960;-67
2022/10/13 01:53:13;;;;;;;9.73;8.73;;;23.20;99.90;;;;;;6257950;27;89120;-66
2022/10/13 01:56:15;;;;;;;9.90;8.88;;;23.20;99.90;;;;;;6255881;27;89046;-66
2022/10/13 01:59:17;;;;;;;9.07;8.23;;;23.20;99.90;;;;;;6247222;27;89059;-66
2022/10/13 02:02:26;;;;;;;10.35;9.25;;;23.20;99.90;;;;;;6234002;27;89012;-67
2022/10/13 02:05:39;;;;;;;10.05;9.05;;;23.20;99.90;;;;;;6258112;27;88443;-67
2022/10/13 02:08:49;;;;;;;9.20;8.30;;;23.20;99.90;;;;;;6255636;27;89499;-67
2022/10/13 02:11:56;;;;;;;9.65;8.75;;;23.20;99.90;;;;;;6246995;27;89163;-66
2022/10/13 02:15:00;;;;;;;9.35;8.45;;;23.20;99.90;;;;;;6234254;27;90239;-67
2022/10/13 02:18:06;;;;;;;9.35;8.52;;;23.20;99.90;;;;;;6256942;27;88037;-67
2022/10/13 02:21:10;;;;;;;9.30;8.50;;;23.20;99.90;;;;;;6257351;27;89063;-67
2022/10/13 02:24:13;;;;;;;9.55;8.55;;;23.20;99.90;;;;;;6256579;27;89084;-66
2022/10/13 02:27:16;;;;;;;9.63;8.73;;;23.10;99.90;;;;;;6257484;27;89065;-67
2022/10/13 02:30:22;;;;;;;9.77;8.77;;;23.20;99.90;;;;;;6257301;27;89089;-66
2022/10/13 02:33:26;;;;;;;10.35;9.10;;;23.10;99.90;;;;;;6243569;27;89336;-67
2022/10/13 02:36:28;;;;;;;10.80;9.70;;;23.20;99.90;;;;;;6257599;27;87256;-67
2022/10/13 02:39:30;;;;;;;10.23;9.23;;;23.10;99.90;;;;;;6251210;27;89007;-67
2022/10/13 02:42:32;;;;;;;9.38;8.57;;;23.10;99.90;;;;;;6249708;27;89175;-67
2022/10/13 02:45:33;;;;;;;10.38;9.27;;;23.10;99.90;;;;;;6243000;27;90082;-67
2022/10/13 02:48:37;;;;;;;10.32;9.32;;;23.10;99.90;;;;;;6244649;27;89089;-66
2022/10/13 02:51:39;;;;;;;10.30;9.30;;;23.20;99.90;;;;;;6244988;27;89029;-67
2022/10/13 02:54:41;;;;;;;10.07;9.07;;;23.10;99.90;;;;;;6245682;27;89150;-67
2022/10/13 02:57:43;;;;;;;9.82;8.82;;;23.20;99.90;;;;;;6250617;27;89251;-67
2022/10/13 03:00:45;;;;;;;10.43;9.43;;;23.10;99.90;;;;;;6242670;27;89022;-67
2022/10/13 03:03:48;;;;;;;9.90;8.90;;;23.10;99.90;;;;;;6245389;27;89088;-66
2022/10/13 03:06:50;;;;;;;10.35;9.25;;;23.10;99.90;;;;;;6233536;28;88325;-67
2022/10/13 03:09:52;;;;;;;10.00;9.00;;;23.10;99.90;;;;;;6254291;27;89058;-67
2022/10/13 03:12:55;;;;;;;10.18;9.07;;;23.10;99.90;;;;;;6256241;27;88888;-67
2022/10/13 03:15:57;;;;;;;9.90;8.95;;;23.10;99.90;;;;;;6243175;27;88848;-67
2022/10/13 03:19:00;;;;;;;10.25;9.25;;;23.10;99.90;;;;;;6263958;27;88993;-66
2022/10/13 03:22:02;;;;;;;10.07;9.07;;;23.10;99.90;;;;;;6254390;27;89271;-67
2022/10/13 03:25:05;;;;;;;10.60;9.60;;;23.10;99.90;;;;;;6241083;27;89210;-66
2022/10/13 03:28:07;;;;;;;10.30;9.30;;;23.10;99.90;;;;;;6256664;27;89144;-66
2022/10/13 03:31:11;;;;;;;10.55;9.45;;;23.10;99.90;;;;;;6242923;27;89027;-66
2022/10/13 03:34:16;;;;;;;10.93;9.63;;;23.10;99.90;;;;;;6253887;27;89200;-67
2022/10/13 03:37:18;;;;;;;10.32;9.25;;;23.10;99.90;;;;;;6256520;27;88787;-66
2022/10/13 03:40:20;;;;;;;9.68;8.77;;;23.10;99.90;;;;;;6244620;27;89064;-67
2022/10/13 03:43:23;;;;;;;9.65;8.57;;;23.10;99.90;;;;;;6244347;27;89092;-67
2022/10/13 03:46:30;;;;;;;9.63;8.73;;;23.10;99.90;;;;;;6253185;27;90118;-66
2022/10/13 03:49:33;;;;;;;9.25;8.43;;;23.10;99.90;;;;;;6256701;27;89252;-66
2022/10/13 03:52:35;;;;;;;9.60;8.70;;;23.10;99.90;;;;;;6239113;27;88481;-66
2022/10/13 03:55:37;;;;;;;9.85;8.93;;;23.10;99.90;;;;;;6250731;27;89039;-66
2022/10/13 03:58:39;;;;;;;9.80;8.90;;;23.10;99.90;;;;;;6255522;27;87986;-67
2022/10/13 04:01:41;;;;;;;9.32;8.43;;;23.10;99.90;;;;;;6253611;27;89433;-66
2022/10/13 04:04:45;;;;;;;9.70;8.80;;;23.10;99.90;;;;;;6251220;27;89019;-66
2022/10/13 04:07:47;;;;;;;9.60;8.70;;;23.20;99.90;;;;;;6256013;27;87532;-67
2022/10/13 04:10:57;;;;;;;9.65;8.65;;;23.10;99.90;;;;;;6240108;27;88003;-67
2022/10/13 04:13:59;;;;;;;9.23;8.32;;;23.10;99.90;;;;;;6235051;27;89062;-66
2022/10/13 04:17:01;;;;;;;9.55;8.65;;;23.10;99.90;;;;;;6241300;28;88995;-67
2022/10/13 04:20:06;;;;;;;9.05;8.25;;;23.20;99.90;;;;;;6249327;27;89075;-67
2022/10/13 04:23:08;;;;;;;9.20;8.30;;;23.20;99.90;;;;;;6242696;27;89107;-66
2022/10/13 04:26:16;;;;;;;9.07;8.20;;;23.20;99.90;;;;;;6255273;28;89169;-67
2022/10/13 04:29:18;;;;;;;9.88;8.88;;;23.20;99.90;;;;;;6244570;27;89492;-66
2022/10/13 04:32:20;;;;;;;9.63;8.68;;;23.20;99.90;;;;;;6252869;27;88181;-66
2022/10/13 04:35:23;;;;;;;8.85;7.95;;;23.20;99.90;;;;;;6254283;27;88018;-67
2022/10/13 04:38:26;;;;;;;10.13;8.30;;;23.20;99.90;;;;;;6226899;27;88326;-67
2022/10/13 04:41:28;;;;;;;9.88;8.40;;;23.20;99.90;;;;;;6241348;27;89317;-66
2022/10/13 04:44:30;;;;;;;9.05;8.13;;;23.20;99.90;;;;;;6236767;27;89122;-66
2022/10/13 04:47:34;;;;;;;9.63;8.68;;;23.20;99.90;;;;;;6254154;27;90053;-66
2022/10/13 04:50:37;;;;;;;9.88;8.88;;;23.20;99.90;;;;;;6253336;27;89124;-66
2022/10/13 04:53:40;;;;;;;9.10;8.10;;;23.20;99.90;;;;;;6239989;27;89127;-66
2022/10/13 04:56:44;;;;;;;9.00;7.88;;;23.20;99.30;;;;;;6254167;27;89051;-66
2022/10/13 04:59:46;;;;;;;10.57;8.80;;;23.20;99.90;;;;;;6254318;27;88998;-66
2022/10/13 05:02:48;;;;;;;9.27;8.38;;;23.20;99.90;;;;;;6257143;27;89004;-66
2022/10/13 05:05:53;;;;;;;9.98;7.88;;;23.20;98.70;;;;;;6251012;27;88961;-66
2022/10/13 05:08:55;;;;;;;10.30;7.90;;;23.20;98.40;;;;;;6248733;27;88352;-65
2022/10/13 05:11:57;;;;;;;8.15;7.35;;;23.20;98.90;;;;;;6259105;27;89400;-66
2022/10/13 05:15:00;;;;;;;7.53;6.82;;;23.20;99.20;;;;;;6246295;27;89070;-65
2022/10/13 05:18:02;;;;;;;8.00;7.20;;;23.20;99.50;;;;;;6257293;27;88707;-65
2022/10/13 05:21:10;;;;;;;7.75;7.00;;;23.20;99.70;;;;;;6251438;27;89021;-66
2022/10/13 05:24:14;;;;;;;9.45;7.00;;;23.20;99.90;;;;;;6245792;27;88939;-66
2022/10/13 05:27:17;;;;;;;7.80;7.00;;;23.20;99.90;;;;;;6252637;27;88756;-66
2022/10/13 05:30:19;;;;;;;8.00;7.20;;;23.30;99.90;;;;;;6258084;28;89094;-65
2022/10/13 05:33:21;;;;;;;7.70;6.90;;;23.20;99.90;;;;;;6246488;27;89081;-66
2022/10/13 05:36:26;;;;;;;7.65;6.90;;;23.20;99.90;;;;;;6250240;27;89165;-66
2022/10/13 05:39:28;;;;;;;7.97;7.05;;;23.30;99.90;;;;;;6255041;27;88645;-66
2022/10/13 05:42:30;;;;;;;8.85;7.35;;;23.30;99.90;;;;;;6256518;27;89442;-66
2022/10/13 05:45:33;;;;;;;7.43;6.72;;;23.30;99.90;;;;;;6260063;27;89114;-66
2022/10/13 05:48:35;;;;;;;8.13;6.85;;;23.20;99.90;;;;;;6250209;27;90035;-66
2022/10/13 05:51:41;;;;;;;7.38;6.68;;;23.20;99.90;;;;;;6258720;27;89326;-66
2022/10/13 05:54:47;;;;;;;7.70;6.90;;;23.30;99.90;;;;;;6246743;27;89027;-66
2022/10/13 05:57:51;;;;;;;6.68;6.00;;;23.30;99.90;;;;;;6255270;27;89027;-66
2022/10/13 06:00:54;;;;;;;7.47;6.78;;;23.30;99.90;;;;;;6255531;27;89013;-66
2022/10/13 06:04:01;;;;;;;7.38;6.68;;;23.30;99.90;;;;;;6239316;27;89161;-66
2022/10/13 06:07:05;;;;;;;7.75;6.97;;;23.30;99.90;;;;;;6232447;27;89565;-66
2022/10/13 06:10:08;;;;;;;8.50;7.40;;;23.30;99.90;;;;;;6246435;27;88712;-66
2022/10/13 06:13:10;;;;;;;7.25;6.57;;;23.30;99.90;;;;;;6257715;27;89042;-66
2022/10/13 06:16:12;;;;;;;7.45;6.72;;;23.30;99.90;;;;;;6236860;27;89080;-66
2022/10/13 06:19:14;;;;;;;7.25;6.53;;;23.30;99.90;;;;;;6251235;27;90134;-66
2022/10/13 06:22:17;;;;;;;7.03;6.40;;;23.30;99.90;;;;;;6257631;27;89123;-65
2022/10/13 06:25:19;;;;;;;7.22;6.53;;;23.30;99.90;;;;;;6258343;27;88808;-67
2022/10/13 06:28:21;;;;;;;7.30;6.60;;;23.30;99.90;;;;;;6257681;27;89085;-67
2022/10/13 06:31:24;;;;;;;7.00;6.30;;;23.30;99.90;;;;;;6249504;27;89047;-67
2022/10/13 06:34:26;;;;;;;7.03;6.32;;;23.30;99.90;;;;;;6248235;27;89074;-67
2022/10/13 06:37:29;;;;;;;7.28;6.50;;;23.30;99.90;;;;;;6252290;27;89061;-66
2022/10/13 06:40:31;;;;;;;7.50;6.70;;;23.30;99.90;;;;;;6234691;27;88310;-66
2022/10/13 06:43:33;;;;;;;6.55;5.95;;;23.30;99.90;;;;;;6253011;27;90673;-66
2022/10/13 06:46:35;;;;;;;7.18;6.47;;;23.30;99.90;;;;;;6249164;27;89100;-67
2022/10/13 06:49:37;;;;;;;6.70;5.95;;;23.30;99.90;;;;;;6257302;27;89986;-66
2022/10/13 06:52:42;;;;;;;7.40;6.45;;;23.30;99.90;;;;;;6243194;27;89272;-66
2022/10/13 06:55:44;;;;;;;6.70;6.00;;;23.30;99.90;;;;;;6244106;27;89031;-66
2022/10/13 06:58:47;;;;;;;6.68;6.07;;;23.40;99.90;;;;;;6243222;27;89068;-66
2022/10/13 07:01:50;;;;;;;7.07;6.38;;;23.30;99.90;;;;;;6241152;27;88877;-66
2022/10/13 07:04:52;;;;;;;7.00;6.30;;;23.30;99.90;;;;;;6243012;27;89156;-66
2022/10/13 07:07:55;;;;;;;7.28;6.50;;;23.40;99.90;;;;;;6255519;27;89902;-66
2022/10/13 07:10:57;;;;;;;7.00;6.30;;;23.40;99.90;;;;;;6257260;27;88673;-66
2022/10/13 07:14:00;;;;;;;6.95;6.25;;;23.40;99.90;;;;;;6253165;27;89045;-66
2022/10/13 07:17:02;;;;;;;6.57;5.97;;;23.40;99.90;;;;;;6255371;28;89037;-66
2022/10/13 07:20:04;;;;;;;6.30;5.70;;;23.40;99.90;;;;;;6244367;27;88926;-66
2022/10/13 07:23:08;;;;;;;6.28;5.68;;;23.40;99.90;;;;;;6248136;27;88352;-66
2022/10/13 07:26:11;;;;;;;6.57;5.97;;;23.40;99.90;;;;;;6239495;27;89180;-66
2022/10/13 07:29:13;;;;;;;6.88;6.22;;;23.40;99.90;;;;;;6254125;27;89110;-65
2022/10/13 07:32:15;;;;;;;6.38;5.72;;;23.40;99.90;;;;;;6255595;27;89525;-66
2022/10/13 07:35:17;;;;;;;5.90;5.40;;;23.40;99.90;;;;;;6245894;27;89055;-66
2022/10/13 07:38:21;;;;;;;6.25;5.65;;;23.40;99.90;;;;;;6231645;27;89159;-66
2022/10/13 07:41:23;;;;;;;6.72;5.57;;;23.40;99.90;;;;;;6242404;27;88467;-67
2022/10/13 07:44:25;;;;;;;6.30;5.70;;;23.50;99.90;;;;;;6241097;27;89355;-66
2022/10/13 07:47:28;;;;;;;6.32;5.72;;;23.40;99.90;;;;;;6254658;27;89100;-66
2022/10/13 07:50:30;;;;;;;6.13;5.53;;;23.40;99.90;;;;;;6246767;27;88961;-66
2022/10/13 07:53:34;;;;;;;7.15;5.47;;;23.50;99.90;;;;;;6233291;27;88127;-66
2022/10/13 07:56:36;;;;;;;6.18;5.55;;;23.50;99.90;;;;;;6254243;27;88832;-66
2022/10/13 07:59:38;;;;;;;7.20;5.72;;;23.40;99.90;;;;;;6254647;27;89292;-66
2022/10/13 08:02:40;;;;;;;7.00;5.80;;;23.50;99.90;;;;;;6254719;27;89061;-66
2022/10/13 08:05:42;;;;;;;6.70;5.80;;;23.50;99.90;;;;;;6242249;27;88702;-66
2022/10/13 08:08:46;;;;;;;5.95;5.43;;;23.50;99.90;;;;;;6255973;27;89210;-67
2022/10/13 08:11:49;;;;;;;6.85;5.22;;;23.50;99.90;;;;;;6244955;27;88200;-66
2022/10/13 08:14:51;;;;;;;5.82;5.22;;;23.50;99.90;;;;;;6244143;27;89265;-66
2022/10/13 08:17:53;;;;;;;5.40;4.90;;;23.60;99.90;;;;;;6239769;27;89066;-66
2022/10/13 08:20:55;;;;;;;5.70;5.20;;;23.50;99.90;;;;;;6254138;27;90062;-66
2022/10/13 08:23:59;;;;;;;5.63;5.13;;;23.50;99.90;;;;;;6254559;27;89110;-66
2022/10/13 08:27:01;;;;;;;5.57;5.00;;;23.50;99.90;;;;;;6256703;27;89669;-66
2022/10/13 08:30:03;;;;;;;5.88;5.28;;;23.50;99.90;;;;;;6253585;27;89219;-66
2022/10/13 08:33:05;;;;;;;5.55;5.00;;;23.50;99.90;;;;;;6248514;27;88000;-66
2022/10/13 08:36:08;;;;;;;5.65;5.15;;;23.50;99.90;;;;;;6242702;27;88973;-66
2022/10/13 08:39:12;;;;;;;6.07;5.43;;;23.50;99.90;;;;;;6246033;27;89080;-66
2022/10/13 08:42:17;;;;;;;5.63;5.13;;;23.60;99.90;;;;;;6239819;27;88549;-66
2022/10/13 08:45:21;;;;;;;5.53;5.03;;;23.60;99.90;;;;;;6245354;27;89823;-66
2022/10/13 08:48:27;;;;;;;6.47;5.13;;;23.60;99.90;;;;;;6254209;27;89081;-66
2022/10/13 08:51:29;;;;;;;5.68;5.18;;;23.60;99.90;;;;;;6254643;27;90456;-66
2022/10/13 08:54:33;;;;;;;5.57;5.07;;;23.50;99.90;;;;;;6241956;27;89074;-66
2022/10/13 08:57:35;;;;;;;5.65;5.10;;;23.60;99.90;;;;;;6239809;27;87969;-66
2022/10/13 09:00:38;;;;;;;6.78;5.72;;;23.60;99.90;;;;;;6251297;27;89224;-66
2022/10/13 09:03:49;;;;;;;5.78;5.18;;;23.60;99.90;;;;;;6253892;28;89091;-66
2022/10/13 09:06:54;;;;;;;5.55;4.97;;;23.60;99.90;;;;;;6243121;28;89111;-66
2022/10/13 09:09:58;;;;;;;5.75;5.15;;;23.60;99.90;;;;;;6254020;27;89326;-66
2022/10/13 09:13:00;;;;;;;5.88;4.97;;;23.60;99.90;;;;;;6254067;27;88346;-66
2022/10/13 09:16:02;;;;;;;5.40;4.90;;;23.60;99.90;;;;;;6249214;27;89090;-66
2022/10/13 09:19:19;;;;;;;5.30;4.80;;;23.60;99.90;;;;;;6238421;27;89672;-66
2022/10/13 09:22:24;;;;;;;5.78;5.00;;;23.60;99.90;;;;;;6241397;27;88902;-66
2022/10/13 09:25:27;;;;;;;6.72;5.25;;;23.60;99.90;;;;;;6238136;27;89293;-66
2022/10/13 09:28:31;;;;;;;5.60;5.10;;;23.60;99.90;;;;;;6246900;27;87994;-66
2022/10/13 09:31:34;;;;;;;5.10;4.70;;;23.60;99.90;;;;;;6246906;27;89112;-66
2022/10/13 09:34:36;;;;;;;5.55;4.70;;;23.60;99.90;;;;;;6235661;27;89107;-66
2022/10/13 09:37:38;;;;;;;4.95;4.53;;;23.60;99.90;;;;;;6248574;27;89225;-66
2022/10/13 09:40:43;;;;;;;4.90;4.40;;;23.60;99.90;;;;;;6246470;27;88019;-67
2022/10/13 09:43:59;;;;;;;8.15;5.60;;;23.60;99.90;;;;;;6256434;27;88429;-66
2022/10/13 09:47:03;;;;;;;4.97;4.57;;;23.60;99.90;;;;;;6259004;27;88985;-66
2022/10/13 09:50:18;;;;;;;4.88;4.47;;;23.60;99.90;;;;;;6258045;27;88316;-67
2022/10/13 09:53:30;;;;;;;7.00;4.63;;;23.70;99.90;;;;;;6256051;27;90163;-66
2022/10/13 09:56:41;;;;;;;5.68;4.88;;;23.60;99.90;;;;;;6242617;27;89688;-66
2022/10/13 09:59:48;;;;;;;5.78;4.90;;;23.70;99.90;;;;;;6256454;28;89175;-66
2022/10/13 10:02:56;;;;;;;5.47;4.60;;;23.60;99.90;;;;;;6258837;27;89272;-66
2022/10/13 10:06:01;;;;;;;6.15;4.57;;;23.60;99.90;;;;;;6254252;27;88852;-66
2022/10/13 10:09:22;;;;;;;5.93;4.63;;;23.60;99.90;;;;;;6250028;27;88319;-66
2022/10/13 10:12:30;;;;;;;6.43;4.88;;;23.60;99.90;;;;;;6245238;27;89116;-66
2022/10/13 10:15:43;;;;;;;6.75;5.07;;;23.60;99.90;;;;;;6258359;27;88701;-66
2022/10/13 10:18:48;;;;;;;7.88;4.80;;;23.60;99.90;;;;;;6253554;27;89285;-66
2022/10/13 10:21:57;;;;;;;6.15;4.60;;;23.60;99.90;;;;;;6245905;27;89075;-66
2022/10/13 10:25:09;;;;;;;6.88;5.35;;;23.60;99.90;;;;;;6247845;27;89277;-66
2022/10/13 10:28:33;;;;;;;7.20;4.80;;;23.60;99.90;;;;;;6258179;27;89206;-65
2022/10/13 10:31:46;;;;;;;6.60;4.70;;;23.60;99.90;;;;;;6237492;27;89280;-66
2022/10/13 10:34:53;;;;;;;8.65;4.80;;;23.70;99.90;;;;;;6233171;27;88274;-66
2022/10/13 10:38:12;;;;;;;6.07;4.85;;;23.70;99.90;;;;;;6252200;27;87963;-66
2022/10/13 10:41:26;;;;;;;7.35;4.70;;;23.60;99.90;;;;;;6249919;27;89074;-66
2022/10/13 10:44:32;;;;;;;6.07;4.68;;;23.60;99.90;;;;;;6234613;27;89015;-66
2022/10/13 10:47:42;;;;;;;6.88;4.40;;;23.60;99.90;;;;;;6243467;27;87253;-66
2022/10/13 10:50:44;;;;;;;5.38;4.55;;;23.60;99.90;;;;;;6251408;27;89435;-66
2022/10/13 10:53:55;;;;;;;5.30;4.35;;;23.70;99.90;;;;;;6247757;27;89101;-66
2022/10/13 10:57:04;;;;;;;5.75;4.55;;;23.70;99.90;;;;;;6247677;27;89139;-66
2022/10/13 11:00:14;;;;;;;6.20;4.88;;;23.60;99.90;;;;;;6241823;27;89138;-66
2022/10/13 11:03:25;;;;;;;6.60;4.30;;;23.60;99.90;;;;;;6255693;27;89103;-66
2022/10/13 11:06:34;;;;;;;5.43;4.72;;;23.60;99.90;;;;;;6245658;27;89171;-66
2022/10/13 11:10:02;;;;;;;5.57;4.72;;;23.60;99.90;;;;;;6254273;27;89642;-66
2022/10/13 11:13:25;;;;;;;5.97;4.78;;;23.60;99.90;;;;;;6239596;27;89095;-66
2022/10/13 11:16:34;;;;;;;5.05;4.32;;;23.60;99.90;;;;;;6240324;27;88009;-66
2022/10/13 11:19:37;;;;;;;6.63;4.78;;;23.60;99.90;;;;;;6243497;27;88350;-66
2022/10/13 11:22:39;;;;;;;6.53;4.45;;;23.60;99.90;;;;;;6249982;27;89008;-66
2022/10/13 11:25:43;;;;;;;5.18;4.60;;;23.60;99.90;;;;;;6245002;27;89497;-66
2022/10/13 11:28:46;;;;;;;4.60;4.13;;;23.60;99.90;;;;;;6254161;27;90076;-66
2022/10/13 11:31:53;;;;;;;5.07;4.28;;;23.60;99.90;;;;;;6243720;27;89068;-66
2022/10/13 11:34:59;;;;;;;5.47;4.38;;;23.60;99.90;;;;;;6253950;27;89148;-66
2022/10/13 11:38:23;;;;;;;4.93;4.15;;;23.60;99.90;;;;;;6256416;27;89043;-66
2022/10/13 11:41:31;;;;;;;5.20;4.45;;;23.60;99.90;;;;;;6248339;27;88936;-66
2022/10/13 11:44:38;;;;;;;5.32;4.35;;;23.60;99.90;;;;;;6244646;27;89036;-66
2022/10/13 11:48:10;;;;;;;5.30;4.43;;;23.70;99.90;;;;;;6245151;27;89107;-66
2022/10/13 11:51:22;;;;;;;4.60;4.20;;;23.60;99.90;;;;;;6250225;27;88632;-66
2022/10/13 11:54:33;;;;;;;6.10;4.45;;;23.60;99.90;;;;;;6232775;27;88733;-66
2022/10/13 11:57:35;;;;;;;4.75;4.18;;;23.60;99.90;;;;;;6245531;27;89020;-66
2022/10/13 12:00:37;;;;;;;4.70;4.25;;;23.60;99.90;;;;;;6254967;27;90216;-66
2022/10/13 12:03:42;;;;;;;4.80;4.30;;;23.60;99.90;;;;;;6244896;27;89123;-66
2022/10/13 12:06:48;;;;;;;5.03;4.50;;;23.60;99.90;;;;;;6231156;27;88902;-66
2022/10/13 12:09:53;;;;;;;4.80;4.40;;;23.60;99.90;;;;;;6241922;27;89106;-66
2022/10/13 12:12:55;;;;;;;6.68;4.53;;;23.60;99.90;;;;;;6255703;27;89094;-66
2022/10/13 12:16:01;;;;;;;4.30;3.90;;;23.60;99.90;;;;;;6247058;27;89295;-66
2022/10/13 12:19:09;;;;;;;5.00;4.05;;;23.60;99.90;;;;;;6231348;27;88972;-66
2022/10/13 12:22:12;;;;;;;4.43;4.03;;;23.60;99.90;;;;;;6237549;28;88371;-66
2022/10/13 12:25:17;;;;;;;4.53;4.13;;;23.60;99.90;;;;;;6255083;27;89085;-66
2022/10/13 12:28:20;;;;;;;4.97;4.07;;;23.60;99.90;;;;;;6255701;27;89112;-66
2022/10/13 12:31:23;;;;;;;4.50;4.10;;;23.60;99.90;;;;;;6249386;27;89970;-66
2022/10/13 12:34:28;;;;;;;4.47;4.07;;;23.60;99.90;;;;;;6247096;27;89115;-66
2022/10/13 12:37:35;;;;;;;4.50;4.10;;;23.60;99.90;;;;;;6241483;27;89608;-66
2022/10/13 12:40:38;;;;;;;6.20;4.38;;;23.60;99.90;;;;;;6255189;27;87993;-67
2022/10/13 12:43:42;;;;;;;5.28;4.55;;;23.60;99.90;;;;;;6241799;27;88972;-66
2022/10/13 12:46:46;;;;;;;4.60;4.18;;;23.60;99.90;;;;;;6247269;27;89061;-66
2022/10/13 12:49:49;;;;;;;5.63;4.05;;;23.60;99.90;;;;;;6254448;27;88984;-66
2022/10/13 12:52:52;;;;;;;4.43;3.85;;;23.60;99.90;;;;;;6245093;27;88404;-66
2022/10/13 12:55:58;;;;;;;4.15;3.75;;;23.70;99.90;;;;;;6236714;27;89217;-66
2022/10/13 12:59:00;;;;;;;4.32;3.92;;;23.70;99.90;;;;;;6252816;27;89100;-66
2022/10/13 13:02:18;;;;;;;4.25;3.80;;;23.60;99.90;;;;;;6242468;27;90024;-66
2022/10/13 13:05:32;;;;;;;4.20;3.80;;;23.60;99.90;;;;;;6243806;27;88038;-67
2022/10/13 13:08:35;;;;;;;4.38;4.00;;;23.60;99.90;;;;;;6242126;27;88083;-66
2022/10/13 13:11:38;;;;;;;4.70;3.80;;;23.60;99.90;;;;;;6254269;27;89362;-66
2022/10/13 13:14:41;;;;;;;4.07;3.78;;;23.60;99.90;;;;;;6245510;27;89042;-66
2022/10/13 13:17:44;;;;;;;4.25;3.85;;;23.70;99.90;;;;;;6242532;27;89504;-66
2022/10/13 13:20:47;;;;;;;4.40;4.00;;;23.60;99.90;;;;;;6239554;27;89185;-66
2022/10/13 13:23:49;;;;;;;4.35;3.90;;;23.60;99.90;;;;;;6252960;27;88386;-66
2022/10/13 13:26:51;;;;;;;4.45;4.05;;;23.60;99.90;;;;;;6251097;27;89106;-66
2022/10/13 13:29:55;;;;;;;4.63;4.07;;;23.60;99.90;;;;;;6256922;27;89073;-66
2022/10/13 13:32:57;;;;;;;4.20;3.80;;;23.60;99.90;;;;;;6254794;27;90160;-66
2022/10/13 13:36:00;;;;;;;4.93;4.20;;;23.60;99.90;;;;;;6258051;27;87957;-66
2022/10/13 13:39:02;;;;;;;4.20;3.80;;;23.60;99.90;;;;;;6246639;27;89128;-66
2022/10/13 13:42:04;;;;;;;4.10;3.70;;;23.60;99.90;;;;;;6243048;27;87988;-66
2022/10/13 13:45:07;;;;;;;4.07;3.67;;;23.60;99.90;;;;;;6238038;27;89419;-66
2022/10/13 13:48:12;;;;;;;5.93;4.00;;;23.60;99.90;;;;;;6247628;27;88488;-66
2022/10/13 13:51:15;;;;;;;4.38;3.92;;;23.70;99.90;;;;;;6250701;28;89069;-66
2022/10/13 13:54:17;;;;;;;4.07;3.78;;;23.60;99.90;;;;;;6250884;27;88358;-67
2022/10/13 13:57:20;;;;;;;4.50;4.10;;;23.60;99.90;;;;;;6238819;27;87978;-66
2022/10/13 14:00:23;;;;;;;3.95;3.55;;;23.60;99.90;;;;;;6250144;27;90173;-67
2022/10/13 14:03:25;;;;;;;3.90;3.60;;;23.60;99.90;;;;;;6249411;28;90016;-66
2022/10/13 14:06:28;;;;;;;5.28;4.07;;;23.60;99.90;;;;;;6236322;27;89084;-67
2022/10/13 14:09:30;;;;;;;3.75;3.45;;;23.60;99.90;;;;;;6248680;27;89513;-66
2022/10/13 14:12:33;;;;;;;3.83;3.53;;;23.60;99.90;;;;;;6246265;27;89319;-67
2022/10/13 14:15:35;;;;;;;3.88;3.58;;;23.60;99.90;;;;;;6251059;27;89136;-66
2022/10/13 14:18:37;;;;;;;4.20;3.80;;;23.60;99.90;;;;;;6246343;28;89018;-66
2022/10/13 14:21:40;;;;;;;4.65;3.60;;;23.60;99.90;;;;;;6255553;27;89066;-66
2022/10/13 14:24:42;;;;;;;4.15;3.75;;;23.60;99.90;;;;;;6249271;27;88343;-66
2022/10/13 14:27:45;;;;;;;4.63;4.13;;;23.60;99.90;;;;;;6255169;27;88062;-67
2022/10/13 14:30:47;;;;;;;5.03;4.32;;;23.60;99.90;;;;;;6244289;27;89431;-66
2022/10/13 14:33:49;;;;;;;4.10;3.70;;;23.60;99.90;;;;;;6245469;27;90076;-67
2022/10/13 14:36:52;;;;;;;3.63;3.33;;;23.60;99.90;;;;;;6243444;27;89122;-66
2022/10/13 14:39:54;;;;;;;4.05;3.65;;;23.60;99.90;;;;;;6247840;27;89301;-67
2022/10/13 14:42:56;;;;;;;3.78;3.47;;;23.60;99.90;;;;;;6252792;27;89603;-67
2022/10/13 14:46:02;;;;;;;4.10;3.70;;;23.60;99.90;;;;;;6256838;27;87216;-66
2022/10/13 14:49:04;;;;;;;3.75;3.45;;;23.60;99.90;;;;;;6256864;27;89096;-67
2022/10/13 14:52:07;;;;;;;4.35;3.78;;;23.60;99.90;;;;;;6255682;27;89226;-67
2022/10/13 14:55:10;;;;;;;3.90;3.60;;;23.60;99.90;;;;;;6254366;27;88327;-66
2022/10/13 14:58:12;;;;;;;4.30;3.78;;;23.60;99.90;;;;;;6255860;27;89005;-66
2022/10/13 15:01:15;;;;;;;4.00;3.60;;;23.60;99.90;;;;;;6257644;27;89225;-67
2022/10/13 15:04:17;;;;;;;3.78;3.47;;;23.60;99.90;;;;;;6252231;27;90227;-67
2022/10/13 15:07:20;;;;;;;4.22;3.83;;;23.60;99.90;;;;;;6234995;27;88964;-67
2022/10/13 15:10:22;;;;;;;4.15;3.75;;;23.60;99.90;;;;;;6255679;27;89263;-67
2022/10/13 15:13:24;;;;;;;4.22;3.53;;;23.60;99.90;;;;;;6233098;28;89096;-67
2022/10/13 15:16:27;;;;;;;3.53;3.22;;;23.60;99.90;;;;;;6245770;27;89079;-66
2022/10/13 15:19:29;;;;;;;3.47;3.17;;;23.60;99.90;;;;;;6243344;27;89091;-66
2022/10/13 15:22:33;;;;;;;4.47;4.07;;;23.60;99.90;;;;;;6256563;27;89166;-66
2022/10/13 15:25:35;;;;;;;3.88;3.47;;;23.60;99.90;;;;;;6243829;27;88356;-66
2022/10/13 15:28:40;;;;;;;3.92;3.53;;;23.60;99.90;;;;;;6255722;27;89104;-66
2022/10/13 15:31:42;;;;;;;3.85;3.55;;;23.60;99.90;;;;;;6255683;27;89172;-66
2022/10/13 15:34:44;;;;;;;3.60;3.30;;;23.60;99.90;;;;;;6254219;27;90082;-67
2022/10/13 15:37:47;;;;;;;3.80;3.40;;;23.60;99.90;;;;;;6237315;27;89137;-66
2022/10/13 15:40:50;;;;;;;3.70;3.40;;;23.60;99.90;;;;;;6238755;27;89082;-66
2022/10/13 15:43:52;;;;;;;4.35;3.75;;;23.60;99.90;;;;;;6247303;27;88882;-66
2022/10/13 15:46:56;;;;;;;3.45;3.15;;;23.60;99.90;;;;;;6256749;27;89290;-66
2022/10/13 15:49:57;;;;;;;3.58;3.28;;;23.60;99.90;;;;;;6256064;27;89662;-66
2022/10/13 15:53:01;;;;;;;4.10;3.50;;;23.60;99.90;;;;;;6256006;27;89155;-66
2022/10/13 15:56:03;;;;;;;3.58;3.25;;;23.60;99.90;;;;;;6240486;27;87502;-66
2022/10/13 15:59:05;;;;;;;4.78;3.90;;;23.60;99.90;;;;;;6251751;27;89245;-66